createdAt,value
2022-11-06T00:00:42.412Z,85.33
2022-11-06T00:01:42.420Z,85.23
2022-11-06T00:02:42.400Z,85.13
2022-11-06T00:03:42.360Z,85.03
2022-11-06T00:04:42.363Z,85.03
2022-11-06T00:05:42.348Z,84.92
2022-11-06T00:06:42.318Z,84.92
2022-11-06T00:07:42.323Z,85.03
2022-11-06T00:08:42.320Z,84.92
2022-11-06T00:09:42.279Z,85.03
2022-11-06T00:10:42.270Z,85.03
2022-11-06T00:11:42.258Z,85.03
2022-11-06T00:12:42.244Z,84.92
2022-11-06T00:13:42.251Z,84.92
2022-11-06T00:14:42.539Z,84.82
2022-11-06T00:15:42.227Z,84.82
2022-11-06T00:16:42.207Z,84.72
2022-11-06T00:17:42.189Z,84.72
2022-11-06T00:18:42.183Z,84.72
2022-11-06T00:19:42.211Z,84.72
2022-11-06T00:20:42.420Z,84.72
2022-11-06T00:21:42.173Z,84.72
2022-11-06T00:22:42.145Z,84.72
2022-11-06T00:23:42.135Z,84.72
2022-11-06T00:24:42.122Z,84.72
2022-11-06T00:25:42.108Z,84.61
2022-11-06T00:26:42.406Z,84.61
2022-11-06T00:27:42.095Z,84.61
2022-11-06T00:28:42.062Z,84.61
2022-11-06T00:29:42.065Z,84.72
2022-11-06T00:30:42.265Z,84.72
2022-11-06T00:31:42.047Z,84.82
2022-11-06T00:32:42.022Z,84.82
2022-11-06T00:33:42.227Z,84.82
2022-11-06T00:34:42.013Z,84.82
2022-11-06T00:35:41.994Z,84.82
2022-11-06T00:36:42.307Z,84.72
2022-11-06T00:37:41.978Z,84.72
2022-11-06T00:38:41.978Z,84.82
2022-11-06T00:39:41.956Z,84.72
2022-11-06T00:40:41.954Z,84.61
2022-11-06T00:41:41.938Z,84.61
2022-11-06T00:42:41.904Z,84.61
2022-11-06T00:43:41.897Z,84.72
2022-11-06T00:44:41.884Z,84.61
2022-11-06T00:45:41.866Z,84.72
2022-11-06T00:46:42.165Z,84.72
2022-11-06T00:47:41.853Z,84.76
2022-11-06T00:48:42.140Z,84.86
2022-11-06T00:49:41.837Z,84.96
2022-11-06T00:50:41.839Z,84.96
2022-11-06T00:51:42.079Z,84.96
2022-11-06T00:52:41.803Z,84.96
2022-11-06T00:53:41.789Z,84.96
2022-11-06T00:54:41.781Z,84.86
2022-11-06T00:55:42.031Z,84.86
2022-11-06T00:56:42.058Z,84.96
2022-11-06T00:57:41.737Z,84.96
2022-11-06T00:58:41.731Z,84.96
2022-11-06T00:59:41.724Z,84.96
2022-11-06T01:00:41.699Z,84.96
2022-11-06T01:01:41.808Z,84.96
2022-11-06T01:02:41.811Z,84.86
2022-11-06T01:03:41.672Z,84.96
2022-11-06T01:04:41.662Z,84.96
2022-11-06T01:05:41.639Z,84.86
2022-11-06T01:06:41.921Z,84.86
2022-11-06T01:07:41.655Z,84.86
2022-11-06T01:08:41.610Z,84.86
2022-11-06T01:09:41.592Z,84.86
2022-11-06T01:10:41.597Z,84.86
2022-11-06T01:12:11.015Z,84.86
2022-11-06T01:12:42.580Z,84.86
2022-11-06T01:13:41.552Z,84.86
2022-11-06T01:14:41.862Z,84.86
2022-11-06T01:15:41.538Z,84.96
2022-11-06T01:16:41.520Z,85.06
2022-11-06T01:17:41.511Z,85.06
2022-11-06T01:18:41.494Z,85.17
2022-11-06T01:19:41.485Z,85.06
2022-11-06T01:20:41.788Z,85.17
2022-11-06T01:21:41.473Z,85.27
2022-11-06T01:22:41.444Z,85.27
2022-11-06T01:23:41.446Z,85.27
2022-11-06T01:24:41.488Z,85.41
2022-11-06T01:25:41.612Z,85.41
2022-11-06T01:26:58.529Z,85.38
2022-11-06T01:27:42.410Z,85.41
2022-11-06T01:28:41.399Z,85.41
2022-11-06T01:29:41.679Z,85.52
2022-11-06T01:30:41.380Z,85.52
2022-11-06T01:31:41.363Z,85.52
2022-11-06T01:32:41.363Z,85.62
2022-11-06T01:33:41.633Z,85.62
2022-11-06T01:34:41.319Z,85.62
2022-11-06T01:35:41.295Z,85.62
2022-11-06T01:36:41.299Z,85.62
2022-11-06T01:37:41.618Z,85.72
2022-11-06T01:38:41.283Z,85.72
2022-11-06T01:39:41.250Z,85.82
2022-11-06T01:40:41.253Z,85.82
2022-11-06T01:41:41.229Z,85.82
2022-11-06T01:42:41.241Z,85.93
2022-11-06T01:43:41.521Z,85.93
2022-11-06T01:44:41.252Z,85.93
2022-11-06T01:45:41.506Z,85.93
2022-11-06T01:46:41.169Z,86.03
2022-11-06T01:47:41.170Z,86.03
2022-11-06T01:48:41.160Z,86.03
2022-11-06T01:49:41.139Z,86.03
2022-11-06T01:50:41.386Z,85.93
2022-11-06T01:51:41.132Z,86.03
2022-11-06T01:52:41.124Z,86.03
2022-11-06T01:53:41.103Z,86.03
2022-11-06T01:54:41.095Z,86.03
2022-11-06T01:55:41.379Z,86.03
2022-11-06T01:56:41.060Z,86.03
2022-11-06T01:57:41.325Z,86.13
2022-11-06T01:58:41.029Z,86.13
2022-11-06T01:59:41.033Z,86.24
2022-11-06T02:00:41.012Z,86.13
2022-11-06T02:01:41.361Z,86.13
2022-11-06T02:02:41.096Z,86.13
2022-11-06T02:03:41.042Z,86.03
2022-11-06T02:04:40.968Z,86.03
2022-11-06T02:05:40.951Z,86.13
2022-11-06T02:06:41.235Z,86.03
2022-11-06T02:07:40.931Z,86.13
2022-11-06T02:08:41.122Z,86.07
2022-11-06T02:09:40.924Z,86.07
2022-11-06T02:10:40.894Z,86.07
2022-11-06T02:11:40.894Z,86.07
2022-11-06T02:12:40.873Z,86.07
2022-11-06T02:13:41.113Z,86.07
2022-11-06T02:14:40.854Z,86.07
2022-11-06T02:15:40.835Z,85.97
2022-11-06T02:16:40.834Z,85.97
2022-11-06T02:17:40.840Z,85.97
2022-11-06T02:18:40.817Z,85.97
2022-11-06T02:19:40.783Z,86.07
2022-11-06T02:20:40.782Z,86.07
2022-11-06T02:21:40.777Z,86.17
2022-11-06T02:22:40.763Z,86.07
2022-11-06T02:23:41.077Z,86.07
2022-11-06T02:24:40.734Z,86.07
2022-11-06T02:25:40.741Z,86.07
2022-11-06T02:26:40.737Z,86.07
2022-11-06T02:27:40.716Z,86.07
2022-11-06T02:28:40.687Z,86.07
2022-11-06T02:29:40.945Z,86.07
2022-11-06T02:30:40.688Z,85.97
2022-11-06T02:31:40.667Z,85.97
2022-11-06T02:32:40.658Z,85.97
2022-11-06T02:33:40.626Z,86.07
2022-11-06T02:34:40.616Z,86.07
2022-11-06T02:35:40.928Z,86.07
2022-11-06T02:36:40.596Z,86.07
2022-11-06T02:37:40.609Z,86.07
2022-11-06T02:38:40.592Z,86.07
2022-11-06T02:39:40.881Z,86.07
2022-11-06T02:40:40.553Z,86.07
2022-11-06T02:41:40.550Z,86.07
2022-11-06T02:42:40.526Z,86.07
2022-11-06T02:43:40.529Z,85.97
2022-11-06T02:44:40.708Z,86.07
2022-11-06T02:45:40.501Z,85.97
2022-11-06T02:46:40.493Z,86.07
2022-11-06T02:47:40.481Z,86.17
2022-11-06T02:48:40.457Z,86.07
2022-11-06T02:49:40.447Z,86.17
2022-11-06T02:50:40.733Z,86.17
2022-11-06T02:51:40.420Z,86.07
2022-11-06T02:52:40.417Z,86.07
2022-11-06T02:53:40.412Z,86.07
2022-11-06T02:54:40.388Z,86.07
2022-11-06T02:55:40.569Z,85.97
2022-11-06T02:56:40.360Z,85.97
2022-11-06T02:57:40.372Z,85.97
2022-11-06T02:58:43.516Z,85.97
2022-11-06T02:59:41.653Z,85.97
2022-11-06T03:00:40.320Z,85.97
2022-11-06T03:01:40.481Z,85.86
2022-11-06T03:02:40.582Z,85.86
2022-11-06T03:03:40.290Z,85.86
2022-11-06T03:04:40.296Z,85.76
2022-11-06T03:05:40.509Z,85.76
2022-11-06T03:06:40.251Z,85.76
2022-11-06T03:07:40.257Z,85.76
2022-11-06T03:08:40.223Z,85.76
2022-11-06T03:09:40.211Z,85.76
2022-11-06T03:10:40.534Z,85.76
2022-11-06T03:11:40.201Z,85.86
2022-11-06T03:12:40.183Z,85.76
2022-11-06T03:13:40.183Z,85.86
2022-11-06T03:14:40.174Z,85.86
2022-11-06T03:15:40.487Z,85.86
2022-11-06T03:16:40.143Z,85.86
2022-11-06T03:17:40.135Z,85.97
2022-11-06T03:18:42.377Z,85.97
2022-11-06T03:19:40.104Z,85.97
2022-11-06T03:20:40.107Z,85.97
2022-11-06T03:21:40.073Z,86.07
2022-11-06T03:22:40.065Z,86.07
2022-11-06T03:23:40.074Z,86.17
2022-11-06T03:24:40.062Z,86.17
2022-11-06T03:25:40.039Z,86.17
2022-11-06T03:26:40.028Z,86.27
2022-11-06T03:27:40.023Z,86.17
2022-11-06T03:28:40.006Z,86.27
2022-11-06T03:29:40.255Z,86.27
2022-11-06T03:30:39.988Z,86.38
2022-11-06T03:31:39.968Z,86.38
2022-11-06T03:32:39.975Z,86.38
2022-11-06T03:33:39.992Z,86.38
2022-11-06T03:34:40.240Z,86.48
2022-11-06T03:35:39.916Z,86.52
2022-11-06T03:36:40.207Z,86.52
2022-11-06T03:37:39.916Z,86.48
2022-11-06T03:38:42.349Z,86.52
2022-11-06T03:39:39.919Z,86.52
2022-11-06T03:40:39.870Z,86.52
2022-11-06T03:41:40.130Z,86.52
2022-11-06T03:42:39.837Z,86.52
2022-11-06T03:43:39.827Z,86.72
2022-11-06T03:44:40.018Z,86.72
2022-11-06T03:45:39.799Z,86.62
2022-11-06T03:46:40.112Z,86.62
2022-11-06T03:47:39.769Z,86.62
2022-11-06T03:48:39.782Z,86.62
2022-11-06T03:49:39.772Z,86.62
2022-11-06T03:50:39.741Z,86.72
2022-11-06T03:51:40.040Z,86.72
2022-11-06T03:52:42.515Z,86.72
2022-11-06T03:53:39.700Z,86.62
2022-11-06T03:54:39.691Z,86.72
2022-11-06T03:55:39.681Z,86.72
2022-11-06T03:56:39.925Z,86.72
2022-11-06T03:57:39.676Z,86.72
2022-11-06T03:58:39.720Z,86.62
2022-11-06T03:59:39.656Z,86.62
2022-11-06T04:00:39.622Z,86.62
2022-11-06T04:01:39.999Z,86.62
2022-11-06T04:02:39.713Z,86.62
2022-11-06T04:03:39.594Z,86.72
2022-11-06T04:04:39.853Z,86.72
2022-11-06T04:05:39.585Z,86.72
2022-11-06T04:06:39.552Z,86.72
2022-11-06T04:07:39.797Z,86.72
2022-11-06T04:08:39.532Z,86.58
2022-11-06T04:09:39.537Z,86.58
2022-11-06T04:10:39.531Z,86.48
2022-11-06T04:11:39.755Z,86.48
2022-11-06T04:12:39.497Z,86.58
2022-11-06T04:13:39.475Z,86.48
2022-11-06T04:14:39.480Z,86.48
2022-11-06T04:15:39.736Z,86.48
2022-11-06T04:16:39.436Z,86.48
2022-11-06T04:17:39.459Z,86.48
2022-11-06T04:18:39.430Z,86.48
2022-11-06T04:19:39.405Z,86.38
2022-11-06T04:20:39.411Z,86.38
2022-11-06T04:21:39.694Z,86.38
2022-11-06T04:22:39.366Z,86.38
2022-11-06T04:23:39.378Z,86.38
2022-11-06T04:24:39.354Z,86.38
2022-11-06T04:25:39.336Z,86.48
2022-11-06T04:26:39.647Z,86.48
2022-11-06T04:27:39.339Z,86.48
2022-11-06T04:28:39.321Z,86.48
2022-11-06T04:29:39.297Z,86.48
2022-11-06T04:30:39.277Z,86.48
2022-11-06T04:31:39.268Z,86.48
2022-11-06T04:32:39.581Z,86.48
2022-11-06T04:33:39.266Z,86.48
2022-11-06T04:34:39.294Z,86.48
2022-11-06T04:35:39.301Z,86.48
2022-11-06T04:36:39.208Z,86.58
2022-11-06T04:37:39.215Z,86.58
2022-11-06T04:38:39.471Z,86.58
2022-11-06T04:39:39.192Z,86.58
2022-11-06T04:40:39.165Z,86.58
2022-11-06T04:41:39.150Z,86.58
2022-11-06T04:42:39.153Z,86.58
2022-11-06T04:43:39.130Z,86.58
2022-11-06T04:44:39.430Z,86.58
2022-11-06T04:45:39.111Z,86.58
2022-11-06T04:46:39.104Z,86.58
2022-11-06T04:47:39.081Z,86.58
2022-11-06T04:48:39.072Z,86.68
2022-11-06T04:49:39.062Z,86.68
2022-11-06T04:50:39.324Z,86.68
2022-11-06T04:51:39.056Z,86.68
2022-11-06T04:52:39.031Z,86.68
2022-11-06T04:53:39.026Z,86.68
2022-11-06T04:54:39.016Z,86.83
2022-11-06T04:55:39.215Z,86.83
2022-11-06T04:56:45.554Z,86.79
2022-11-06T04:57:39.983Z,86.93
2022-11-06T04:58:38.975Z,86.89
2022-11-06T04:59:38.967Z,86.93
2022-11-06T05:00:39.309Z,86.93
2022-11-06T05:01:39.073Z,86.89
2022-11-06T05:02:38.928Z,86.93
2022-11-06T05:03:38.917Z,86.89
2022-11-06T05:04:38.898Z,86.89
2022-11-06T05:05:39.208Z,86.93
2022-11-06T05:06:38.877Z,86.93
2022-11-06T05:07:38.877Z,87.04
2022-11-06T05:08:38.844Z,87.04
2022-11-06T05:09:38.834Z,87.13
2022-11-06T05:10:38.829Z,87.04
2022-11-06T05:11:39.131Z,87.04
2022-11-06T05:12:38.809Z,87.04
2022-11-06T05:13:39.102Z,87.13
2022-11-06T05:14:39.026Z,87.13
2022-11-06T05:15:38.757Z,87.13
2022-11-06T05:16:38.769Z,87.13
2022-11-06T05:17:38.748Z,87.13
2022-11-06T05:18:38.751Z,87.13
2022-11-06T05:19:38.719Z,87.13
2022-11-06T05:20:39.017Z,87.13
2022-11-06T05:21:38.711Z,87.04
2022-11-06T05:22:38.678Z,87.04
2022-11-06T05:23:38.674Z,87.13
2022-11-06T05:24:38.688Z,87.13
2022-11-06T05:25:38.647Z,87.13
2022-11-06T05:26:38.938Z,87.13
2022-11-06T05:27:38.652Z,87.13
2022-11-06T05:28:38.933Z,87.13
2022-11-06T05:29:38.606Z,87.24
2022-11-06T05:30:38.589Z,87.24
2022-11-06T05:31:38.597Z,87.34
2022-11-06T05:32:38.572Z,87.34
2022-11-06T05:33:38.803Z,87.34
2022-11-06T05:34:38.540Z,87.24
2022-11-06T05:35:38.530Z,87.24
2022-11-06T05:36:38.534Z,87.24
2022-11-06T05:37:38.511Z,87.34
2022-11-06T05:38:38.512Z,87.24
2022-11-06T05:39:41.889Z,87.24
2022-11-06T05:40:38.495Z,87.24
2022-11-06T05:41:38.487Z,87.24
2022-11-06T05:42:38.456Z,87.10
2022-11-06T05:43:38.445Z,87.13
2022-11-06T05:44:38.448Z,87.13
2022-11-06T05:45:38.748Z,87.13
2022-11-06T05:46:53.833Z,87.13
2022-11-06T05:47:39.623Z,87.13
2022-11-06T05:48:38.386Z,87.13
2022-11-06T05:49:38.386Z,87.13
2022-11-06T05:50:38.365Z,87.24
2022-11-06T05:51:38.363Z,87.24
2022-11-06T05:52:38.347Z,87.34
2022-11-06T05:53:38.658Z,87.34
2022-11-06T05:54:38.334Z,87.34
2022-11-06T05:55:38.554Z,87.24
2022-11-06T05:56:38.328Z,87.24
2022-11-06T05:57:38.307Z,87.24
2022-11-06T05:58:38.266Z,87.24
2022-11-06T05:59:38.265Z,87.24
2022-11-06T06:00:38.266Z,87.24
2022-11-06T06:01:38.649Z,87.13
2022-11-06T06:02:38.327Z,87.13
2022-11-06T06:03:38.216Z,87.13
2022-11-06T06:04:38.196Z,87.04
2022-11-06T06:05:38.187Z,87.04
2022-11-06T06:06:38.196Z,87.04
2022-11-06T06:07:38.442Z,87.04
2022-11-06T06:08:45.172Z,87.13
2022-11-06T06:09:38.460Z,87.04
2022-11-06T06:10:38.133Z,87.04
2022-11-06T06:11:38.139Z,87.13
2022-11-06T06:12:38.128Z,87.13
2022-11-06T06:13:38.119Z,87.13
2022-11-06T06:14:38.090Z,87.13
2022-11-06T06:15:38.398Z,87.13
2022-11-06T06:16:38.079Z,87.13
2022-11-06T06:17:38.069Z,87.13
2022-11-06T06:18:38.059Z,87.13
2022-11-06T06:19:38.047Z,87.24
2022-11-06T06:20:38.016Z,87.24
2022-11-06T06:21:38.331Z,87.24
2022-11-06T06:22:38.004Z,87.34
2022-11-06T06:23:38.011Z,87.34
2022-11-06T06:24:38.071Z,87.34
2022-11-06T06:25:37.980Z,87.34
2022-11-06T06:26:37.948Z,87.34
2022-11-06T06:27:37.958Z,87.34
2022-11-06T06:28:37.940Z,87.24
2022-11-06T06:29:38.174Z,87.24
2022-11-06T06:30:37.917Z,87.34
2022-11-06T06:31:37.897Z,87.34
2022-11-06T06:32:37.900Z,87.24
2022-11-06T06:33:37.885Z,87.24
2022-11-06T06:34:37.861Z,87.24
2022-11-06T06:35:38.168Z,87.24
2022-11-06T06:36:37.852Z,87.24
2022-11-06T06:37:37.839Z,87.34
2022-11-06T06:38:38.142Z,87.24
2022-11-06T06:39:37.808Z,87.24
2022-11-06T06:40:37.806Z,87.24
2022-11-06T06:41:37.779Z,87.24
2022-11-06T06:42:37.769Z,87.24
2022-11-06T06:43:38.113Z,87.13
2022-11-06T06:44:37.763Z,87.13
2022-11-06T06:45:37.740Z,87.13
2022-11-06T06:46:37.720Z,87.13
2022-11-06T06:47:37.710Z,87.13
2022-11-06T06:48:37.691Z,87.13
2022-11-06T06:49:37.896Z,87.13
2022-11-06T06:50:37.694Z,87.13
2022-11-06T06:51:37.684Z,87.04
2022-11-06T06:52:37.663Z,87.04
2022-11-06T06:53:37.646Z,87.04
2022-11-06T06:54:37.696Z,86.99
2022-11-06T06:55:37.635Z,87.04
2022-11-06T06:56:37.625Z,86.99
2022-11-06T06:57:37.613Z,86.93
2022-11-06T06:58:37.593Z,86.99
2022-11-06T06:59:37.573Z,86.89
2022-11-06T07:00:37.645Z,86.99
2022-11-06T07:01:37.721Z,86.89
2022-11-06T07:02:37.558Z,86.89
2022-11-06T07:03:37.543Z,86.89
2022-11-06T07:04:37.532Z,86.89
2022-11-06T07:05:37.524Z,86.89
2022-11-06T07:06:37.518Z,86.89
2022-11-06T07:07:37.693Z,86.89
2022-11-06T07:08:37.516Z,86.89
2022-11-06T07:09:37.498Z,86.79
2022-11-06T07:10:37.477Z,86.68
2022-11-06T07:11:37.454Z,86.58
2022-11-06T07:12:37.434Z,86.48
2022-11-06T07:13:37.657Z,86.48
2022-11-06T07:14:37.413Z,86.48
2022-11-06T07:15:37.393Z,86.38
2022-11-06T07:16:37.392Z,86.38
2022-11-06T07:17:37.376Z,86.38
2022-11-06T07:18:37.719Z,86.27
2022-11-06T07:19:37.366Z,86.27
2022-11-06T07:20:37.336Z,86.27
2022-11-06T07:21:37.324Z,86.27
2022-11-06T07:22:37.912Z,86.38
2022-11-06T07:23:37.318Z,86.54
2022-11-06T07:24:37.286Z,86.33
2022-11-06T07:25:37.276Z,86.44
2022-11-06T07:26:37.278Z,86.24
2022-11-06T07:27:37.273Z,86.13
2022-11-06T07:28:37.531Z,86.03
2022-11-06T07:29:37.561Z,85.93
2022-11-06T07:30:37.217Z,85.82
2022-11-06T07:31:37.230Z,85.82
2022-11-06T07:32:37.521Z,85.62
2022-11-06T07:33:37.202Z,85.62
2022-11-06T07:34:37.477Z,85.62
2022-11-06T07:35:37.169Z,85.47
2022-11-06T07:36:37.171Z,85.38
2022-11-06T07:37:37.140Z,85.38
2022-11-06T07:38:37.143Z,85.38
2022-11-06T07:39:37.125Z,85.38
2022-11-06T07:40:37.422Z,85.17
2022-11-06T07:41:37.333Z,85.06
2022-11-06T07:42:42.230Z,85.17
2022-11-06T07:43:38.113Z,84.92
2022-11-06T07:44:37.050Z,84.72
2022-11-06T07:45:37.050Z,84.72
2022-11-06T07:46:37.032Z,84.61
2022-11-06T07:47:37.056Z,84.52
2022-11-06T07:48:37.034Z,84.41
2022-11-06T07:49:37.000Z,84.31
2022-11-06T07:50:36.995Z,84.20
2022-11-06T07:51:36.987Z,84.10
2022-11-06T07:52:36.983Z,84.10
2022-11-06T07:53:37.263Z,83.86
2022-11-06T07:54:36.941Z,83.86
2022-11-06T07:55:41.960Z,83.76
2022-11-06T07:56:37.921Z,83.65
2022-11-06T07:57:36.916Z,83.65
2022-11-06T07:59:16.404Z,83.55
2022-11-06T07:59:36.895Z,83.55
2022-11-06T08:00:36.944Z,83.55
2022-11-06T08:01:37.039Z,83.55
2022-11-06T08:02:37.167Z,83.65
2022-11-06T08:03:36.856Z,83.65
2022-11-06T08:04:36.846Z,83.65
2022-11-06T08:05:36.811Z,83.65
2022-11-06T08:06:36.815Z,83.55
2022-11-06T08:07:37.118Z,83.34
2022-11-06T08:08:37.126Z,83.31
2022-11-06T08:09:36.766Z,83.31
2022-11-06T08:10:36.786Z,83.31
2022-11-06T08:11:37.069Z,83.20
2022-11-06T08:12:36.750Z,83.20
2022-11-06T08:13:36.723Z,83.20
2022-11-06T08:14:41.262Z,83.00
2022-11-06T08:15:36.697Z,83.00
2022-11-06T08:16:36.696Z,82.96
2022-11-06T08:17:37.006Z,82.86
2022-11-06T08:18:36.665Z,82.76
2022-11-06T08:19:36.894Z,82.65
2022-11-06T08:20:36.641Z,82.55
2022-11-06T08:21:36.652Z,82.45
2022-11-06T08:22:36.632Z,82.45
2022-11-06T08:23:36.599Z,82.45
2022-11-06T08:24:36.619Z,82.45
2022-11-06T08:25:36.592Z,82.35
2022-11-06T08:26:36.677Z,82.24
2022-11-06T08:27:36.562Z,82.21
2022-11-06T08:28:36.562Z,82.21
2022-11-06T08:29:41.084Z,82.21
2022-11-06T08:30:36.838Z,82.10
2022-11-06T08:31:36.523Z,81.90
2022-11-06T08:32:43.180Z,81.70
2022-11-06T08:33:36.501Z,81.79
2022-11-06T08:34:36.470Z,81.70
2022-11-06T08:35:36.470Z,81.59
2022-11-06T08:36:36.724Z,81.56
2022-11-06T08:37:36.455Z,81.56
2022-11-06T08:38:36.444Z,81.56
2022-11-06T08:39:36.426Z,81.56
2022-11-06T08:40:36.423Z,81.45
2022-11-06T08:41:36.424Z,81.35
2022-11-06T08:42:36.391Z,81.35
2022-11-06T08:43:36.377Z,81.24
2022-11-06T08:44:36.359Z,81.24
2022-11-06T08:45:36.345Z,81.24
2022-11-06T08:46:36.546Z,81.15
2022-11-06T08:47:36.326Z,81.01
2022-11-06T08:48:36.331Z,81.01
2022-11-06T08:49:36.633Z,80.80
2022-11-06T08:50:36.284Z,80.90
2022-11-06T08:51:36.289Z,80.90
2022-11-06T08:52:36.279Z,80.69
2022-11-06T08:53:36.341Z,80.69
2022-11-06T08:54:36.499Z,80.60
2022-11-06T08:55:36.238Z,80.49
2022-11-06T08:56:36.236Z,80.49
2022-11-06T08:57:36.228Z,80.39
2022-11-06T08:58:36.507Z,80.29
2022-11-06T08:59:36.199Z,80.35
2022-11-06T09:00:36.178Z,80.25
2022-11-06T09:01:36.276Z,80.05
2022-11-06T09:02:36.259Z,79.94
2022-11-06T09:03:36.137Z,79.94
2022-11-06T09:04:41.051Z,79.80
2022-11-06T09:05:37.129Z,79.60
2022-11-06T09:06:36.121Z,79.39
2022-11-06T09:07:36.113Z,79.50
2022-11-06T09:08:36.079Z,79.39
2022-11-06T09:09:36.389Z,79.29
2022-11-06T09:10:36.084Z,79.29
2022-11-06T09:11:36.064Z,79.19
2022-11-06T09:12:36.365Z,79.19
2022-11-06T09:13:36.030Z,79.05
2022-11-06T09:14:36.009Z,78.85
2022-11-06T09:15:36.309Z,78.64
2022-11-06T09:16:35.994Z,78.44
2022-11-06T09:17:35.980Z,78.34
2022-11-06T09:18:35.983Z,78.34
2022-11-06T09:19:35.970Z,78.30
2022-11-06T09:20:36.177Z,78.09
2022-11-06T09:21:35.931Z,78.00
2022-11-06T09:22:35.935Z,78.00
2022-11-06T09:23:35.926Z,78.09
2022-11-06T09:25:01.385Z,78.00
2022-11-06T09:25:36.924Z,77.89
2022-11-06T09:26:35.897Z,77.89
2022-11-06T09:27:35.883Z,77.79
2022-11-06T09:28:35.874Z,77.69
2022-11-06T09:29:35.854Z,77.89
2022-11-06T09:30:35.847Z,78.00
2022-11-06T09:31:35.846Z,78.09
2022-11-06T09:32:35.820Z,78.09
2022-11-06T09:33:35.806Z,78.20
2022-11-06T09:34:35.786Z,77.89
2022-11-06T09:35:35.795Z,78.00
2022-11-06T09:36:35.914Z,78.00
2022-11-06T09:37:35.765Z,77.89
2022-11-06T09:38:35.776Z,77.89
2022-11-06T09:39:35.725Z,77.89
2022-11-06T09:40:35.738Z,78.00
2022-11-06T09:41:35.715Z,77.89
2022-11-06T09:42:35.720Z,77.89
2022-11-06T09:44:04.633Z,78.00
2022-11-06T09:44:36.675Z,78.20
2022-11-06T09:45:35.658Z,78.09
2022-11-06T09:46:35.647Z,78.06
2022-11-06T09:47:35.661Z,77.96
2022-11-06T09:48:35.701Z,77.75
2022-11-06T09:49:35.615Z,77.55
2022-11-06T09:50:35.608Z,77.55
2022-11-06T09:51:35.632Z,77.45
2022-11-06T09:52:35.587Z,77.45
2022-11-06T09:53:35.589Z,77.34
2022-11-06T09:54:35.569Z,77.11
2022-11-06T09:55:35.563Z,76.90
2022-11-06T09:56:35.793Z,76.80
2022-11-06T09:57:35.542Z,76.70
2022-11-06T09:58:35.520Z,76.59
2022-11-06T09:59:35.524Z,76.59
2022-11-06T10:00:35.500Z,76.39
2022-11-06T10:01:35.652Z,76.29
2022-11-06T10:02:35.556Z,76.39
2022-11-06T10:03:35.460Z,76.39
2022-11-06T10:04:35.466Z,76.29
2022-11-06T10:05:35.453Z,76.39
2022-11-06T10:06:35.445Z,76.29
2022-11-06T10:07:35.432Z,76.25
2022-11-06T10:08:35.430Z,76.25
2022-11-06T10:09:35.666Z,76.15
2022-11-06T10:10:35.391Z,76.15
2022-11-06T10:11:35.370Z,76.05
2022-11-06T10:12:35.366Z,76.25
2022-11-06T10:13:35.346Z,76.25
2022-11-06T10:14:35.350Z,76.25
2022-11-06T10:15:35.533Z,76.35
2022-11-06T10:16:35.308Z,76.15
2022-11-06T10:17:35.304Z,75.95
2022-11-06T10:18:35.307Z,75.95
2022-11-06T10:19:35.282Z,76.05
2022-11-06T10:20:35.267Z,76.05
2022-11-06T10:21:35.495Z,76.05
2022-11-06T10:22:35.260Z,76.05
2022-11-06T10:23:35.250Z,75.64
2022-11-06T10:24:35.247Z,75.54
2022-11-06T10:25:35.238Z,75.54
2022-11-06T10:26:35.211Z,75.54
2022-11-06T10:27:35.210Z,75.64
2022-11-06T10:28:35.210Z,75.44
2022-11-06T10:29:35.158Z,75.34
2022-11-06T10:30:35.160Z,75.23
2022-11-06T10:31:35.137Z,75.13
2022-11-06T10:32:35.143Z,75.03
2022-11-06T10:33:35.445Z,74.93
2022-11-06T10:34:35.123Z,74.99
2022-11-06T10:35:35.103Z,74.90
2022-11-06T10:36:35.426Z,74.69
2022-11-06T10:37:35.081Z,74.69
2022-11-06T10:38:35.064Z,74.58
2022-11-06T10:39:35.053Z,74.69
2022-11-06T10:40:35.053Z,74.55
2022-11-06T10:41:35.052Z,74.55
2022-11-06T10:42:38.069Z,74.45
2022-11-06T10:43:35.005Z,74.45
2022-11-06T10:44:34.981Z,74.45
2022-11-06T10:45:35.017Z,74.11
2022-11-06T10:46:34.963Z,73.91
2022-11-06T10:47:34.966Z,73.80
2022-11-06T10:48:40.150Z,73.40
2022-11-06T10:49:35.931Z,73.30
2022-11-06T10:50:34.916Z,73.19
2022-11-06T10:51:35.217Z,73.19
2022-11-06T10:52:34.918Z,73.10
2022-11-06T10:53:34.888Z,73.10
2022-11-06T10:54:34.884Z,73.19
2022-11-06T10:55:34.874Z,72.89
2022-11-06T10:56:34.870Z,73.10
2022-11-06T10:57:34.870Z,72.89
2022-11-06T10:58:34.827Z,72.89
2022-11-06T10:59:34.820Z,72.78
2022-11-06T11:00:34.806Z,72.69
2022-11-06T11:01:34.918Z,72.69
2022-11-06T11:02:35.097Z,72.78
2022-11-06T11:03:34.760Z,72.99
2022-11-06T11:04:34.757Z,72.99
2022-11-06T11:05:34.758Z,72.99
2022-11-06T11:06:34.729Z,73.10
2022-11-06T11:07:35.050Z,73.19
2022-11-06T11:08:34.723Z,72.99
2022-11-06T11:09:34.710Z,72.99
2022-11-06T11:10:34.732Z,72.99
2022-11-06T11:11:34.669Z,72.78
2022-11-06T11:12:34.931Z,72.58
2022-11-06T11:13:34.670Z,72.69
2022-11-06T11:14:34.689Z,72.69
2022-11-06T11:15:34.632Z,72.69
2022-11-06T11:16:34.642Z,72.78
2022-11-06T11:17:34.610Z,72.69
2022-11-06T11:18:34.603Z,72.69
2022-11-06T11:19:34.587Z,72.58
2022-11-06T11:20:34.561Z,72.48
2022-11-06T11:21:34.581Z,72.78
2022-11-06T11:22:34.794Z,72.69
2022-11-06T11:23:34.623Z,72.58
2022-11-06T11:24:34.598Z,72.28
2022-11-06T11:25:34.503Z,72.17
2022-11-06T11:26:34.505Z,72.28
2022-11-06T11:27:34.496Z,72.08
2022-11-06T11:28:34.734Z,72.08
2022-11-06T11:29:34.477Z,71.60
2022-11-06T11:30:34.546Z,71.70
2022-11-06T11:31:34.454Z,71.50
2022-11-06T11:32:34.426Z,71.70
2022-11-06T11:33:34.425Z,71.80
2022-11-06T11:34:34.725Z,71.91
2022-11-06T11:35:34.407Z,71.91
2022-11-06T11:36:34.385Z,72.01
2022-11-06T11:37:34.383Z,72.21
2022-11-06T11:38:34.369Z,72.04
2022-11-06T11:39:34.348Z,72.14
2022-11-06T11:40:34.369Z,72.24
2022-11-06T11:41:34.323Z,72.14
2022-11-06T11:42:34.330Z,72.14
2022-11-06T11:43:34.297Z,72.14
2022-11-06T11:44:34.311Z,72.14
2022-11-06T11:45:34.277Z,72.14
2022-11-06T11:46:34.571Z,72.34
2022-11-06T11:47:34.271Z,72.34
2022-11-06T11:48:34.255Z,71.94
2022-11-06T11:49:34.228Z,71.70
2022-11-06T11:50:34.239Z,71.70
2022-11-06T11:51:34.218Z,71.60
2022-11-06T11:52:34.434Z,71.60
2022-11-06T11:53:34.188Z,71.70
2022-11-06T11:54:34.183Z,71.70
2022-11-06T11:55:34.481Z,71.60
2022-11-06T11:57:03.089Z,71.60
2022-11-06T11:57:35.452Z,71.70
2022-11-06T11:58:34.135Z,71.60
2022-11-06T11:59:34.111Z,71.60
2022-11-06T12:00:34.114Z,71.80
2022-11-06T12:01:34.491Z,71.80
2022-11-06T12:02:34.269Z,71.91
2022-11-06T12:03:34.079Z,71.91
2022-11-06T12:04:34.068Z,71.80
2022-11-06T12:05:34.066Z,71.70
2022-11-06T12:06:34.087Z,71.30
2022-11-06T12:07:34.289Z,71.30
2022-11-06T12:08:34.022Z,71.50
2022-11-06T12:09:34.004Z,71.30
2022-11-06T12:10:34.004Z,71.39
2022-11-06T12:11:34.305Z,71.39
2022-11-06T12:12:33.958Z,71.50
2022-11-06T12:13:33.967Z,71.09
2022-11-06T12:14:33.934Z,71.09
2022-11-06T12:15:33.945Z,71.09
2022-11-06T12:16:34.169Z,71.19
2022-11-06T12:17:33.917Z,71.39
2022-11-06T12:18:33.901Z,71.39
2022-11-06T12:19:33.889Z,71.30
2022-11-06T12:20:33.867Z,70.89
2022-11-06T12:21:33.869Z,70.68
2022-11-06T12:22:34.084Z,70.78
2022-11-06T12:23:33.850Z,70.99
2022-11-06T12:24:33.830Z,70.78
2022-11-06T12:25:33.826Z,70.48
2022-11-06T12:26:33.801Z,70.48
2022-11-06T12:27:33.786Z,70.68
2022-11-06T12:28:34.091Z,70.68
2022-11-06T12:29:33.757Z,70.28
2022-11-06T12:30:33.739Z,70.28
2022-11-06T12:31:33.765Z,70.28
2022-11-06T12:32:33.959Z,70.07
2022-11-06T12:34:04.605Z,69.97
2022-11-06T12:34:34.706Z,69.97
2022-11-06T12:35:33.703Z,69.97
2022-11-06T12:36:33.991Z,69.87
2022-11-06T12:37:33.659Z,69.90
2022-11-06T12:38:33.666Z,70.10
2022-11-06T12:39:33.637Z,70.41
2022-11-06T12:40:33.621Z,70.41
2022-11-06T12:41:33.922Z,70.41
2022-11-06T12:42:33.614Z,70.72
2022-11-06T12:43:33.611Z,70.82
2022-11-06T12:44:33.594Z,71.02
2022-11-06T12:45:33.574Z,70.92
2022-11-06T12:46:33.874Z,70.92
2022-11-06T12:47:33.565Z,70.72
2022-11-06T12:48:33.522Z,70.41
2022-11-06T12:49:33.524Z,70.51
2022-11-06T12:50:33.523Z,70.51
2022-11-06T12:51:33.513Z,70.41
2022-11-06T12:52:33.495Z,70.31